sensor_id;sensor_type;location;lat;lon;timestamp;P1;durP1;ratioP1;P2;durP2;ratioP2
20857;SDS011;10589;53.636;10.012;2022-12-07T04:46:57;4.00;;;2.43;;
20857;SDS011;10589;53.636;10.012;2022-12-07T04:49:23;7.73;;;2.87;;
20857;SDS011;10589;53.636;10.012;2022-12-07T04:51:49;3.90;;;3.03;;
20857;SDS011;10589;53.636;10.012;2022-12-07T04:54:16;6.93;;;3.33;;
20857;SDS011;10589;53.636;10.012;2022-12-07T04:56:42;5.13;;;2.90;;
20857;SDS011;10589;53.636;10.012;2022-12-07T04:59:09;7.23;;;3.20;;
20857;SDS011;10589;53.636;10.012;2022-12-07T05:01:35;9.40;;;3.43;;
20857;SDS011;10589;53.636;10.012;2022-12-07T05:04:01;5.70;;;3.00;;
20857;SDS011;10589;53.636;10.012;2022-12-07T05:06:27;7.27;;;3.53;;
20857;SDS011;10589;53.636;10.012;2022-12-07T05:08:53;5.87;;;2.80;;
20857;SDS011;10589;53.636;10.012;2022-12-07T05:11:18;4.80;;;3.20;;
20857;SDS011;10589;53.636;10.012;2022-12-07T05:14:03;7.73;;;2.90;;
20857;SDS011;10589;53.636;10.012;2022-12-07T05:16:30;4.77;;;3.17;;
20857;SDS011;10589;53.636;10.012;2022-12-07T05:18:56;10.60;;;4.07;;
20857;SDS011;10589;53.636;10.012;2022-12-07T05:21:22;7.53;;;3.23;;
20857;SDS011;10589;53.636;10.012;2022-12-07T05:23:48;8.50;;;3.50;;
20857;SDS011;10589;53.636;10.012;2022-12-07T05:26:13;6.43;;;3.23;;
20857;SDS011;10589;53.636;10.012;2022-12-07T05:28:39;8.20;;;3.90;;
20857;SDS011;10589;53.636;10.012;2022-12-07T05:31:05;6.07;;;3.30;;
20857;SDS011;10589;53.636;10.012;2022-12-07T05:33:31;8.50;;;4.00;;
20857;SDS011;10589;53.636;10.012;2022-12-07T05:35:57;6.80;;;3.70;;
20857;SDS011;10589;53.636;10.012;2022-12-07T05:38:22;9.87;;;3.63;;
20857;SDS011;10589;53.636;10.012;2022-12-07T05:40:49;5.23;;;3.37;;
20857;SDS011;10589;53.636;10.012;2022-12-07T05:43:15;7.47;;;3.93;;
20857;SDS011;10589;53.636;10.012;2022-12-07T05:45:41;5.93;;;3.30;;
20857;SDS011;10589;53.636;10.012;2022-12-07T05:48:06;8.37;;;3.93;;
20857;SDS011;10589;53.636;10.012;2022-12-07T05:50:32;7.10;;;3.70;;
20857;SDS011;10589;53.636;10.012;2022-12-07T05:52:57;6.17;;;3.60;;
20857;SDS011;10589;53.636;10.012;2022-12-07T05:55:23;11.83;;;4.37;;
20857;SDS011;10589;53.636;10.012;2022-12-07T05:57:48;9.10;;;4.23;;
20857;SDS011;10589;53.636;10.012;2022-12-07T06:00:32;12.53;;;4.67;;
20857;SDS011;10589;53.636;10.012;2022-12-07T06:02:58;12.13;;;4.57;;
20857;SDS011;10589;53.636;10.012;2022-12-07T06:05:24;9.57;;;5.00;;
20857;SDS011;10589;53.636;10.012;2022-12-07T06:07:49;19.67;;;5.10;;
20857;SDS011;10589;53.636;10.012;2022-12-07T06:10:15;14.27;;;5.10;;
20857;SDS011;10589;53.636;10.012;2022-12-07T06:12:40;12.83;;;6.03;;
20857;SDS011;10589;53.636;10.012;2022-12-07T06:15:08;8.17;;;5.30;;
20857;SDS011;10589;53.636;10.012;2022-12-07T06:17:34;11.20;;;5.03;;
20857;SDS011;10589;53.636;10.012;2022-12-07T06:20:00;9.83;;;6.40;;
20857;SDS011;10589;53.636;10.012;2022-12-07T06:22:26;9.23;;;5.93;;
20857;SDS011;10589;53.636;10.012;2022-12-07T06:24:51;8.07;;;5.37;;
20857;SDS011;10589;53.636;10.012;2022-12-07T06:27:17;10.70;;;5.73;;
20857;SDS011;10589;53.636;10.012;2022-12-07T06:29:42;7.97;;;5.20;;
20857;SDS011;10589;53.636;10.012;2022-12-07T06:32:08;14.20;;;5.50;;
20857;SDS011;10589;53.636;10.012;2022-12-07T06:34:34;10.77;;;5.30;;
20857;SDS011;10589;53.636;10.012;2022-12-07T06:37:00;14.13;;;4.60;;
20857;SDS011;10589;53.636;10.012;2022-12-07T06:39:26;10.73;;;4.77;;
20857;SDS011;10589;53.636;10.012;2022-12-07T06:41:53;12.83;;;5.17;;
20857;SDS011;10589;53.636;10.012;2022-12-07T06:44:19;12.97;;;5.07;;
20857;SDS011;10589;53.636;10.012;2022-12-07T06:46:46;11.00;;;5.53;;
20857;SDS011;10589;53.636;10.012;2022-12-07T06:49:13;10.97;;;4.97;;
20857;SDS011;10589;53.636;10.012;2022-12-07T06:51:38;11.97;;;5.13;;
20857;SDS011;10589;53.636;10.012;2022-12-07T06:54:12;8.20;;;4.90;;
20857;SDS011;10589;53.636;10.012;2022-12-07T06:56:39;15.67;;;5.20;;
20857;SDS011;10589;53.636;10.012;2022-12-07T06:59:05;9.03;;;4.30;;
20857;SDS011;10589;53.636;10.012;2022-12-07T07:01:32;10.07;;;4.43;;
20857;SDS011;10589;53.636;10.012;2022-12-07T07:03:59;7.60;;;4.27;;
20857;SDS011;10589;53.636;10.012;2022-12-07T07:06:25;7.60;;;4.27;;
20857;SDS011;10589;53.636;10.012;2022-12-07T07:08:51;10.40;;;4.07;;
20857;SDS011;10589;53.636;10.012;2022-12-07T07:11:17;7.30;;;3.73;;
20857;SDS011;10589;53.636;10.012;2022-12-07T07:13:43;12.03;;;4.20;;
20857;SDS011;10589;53.636;10.012;2022-12-07T07:16:09;6.30;;;3.63;;
20857;SDS011;10589;53.636;10.012;2022-12-07T07:18:35;10.43;;;3.57;;
20857;SDS011;10589;53.636;10.012;2022-12-07T07:21:01;8.43;;;3.37;;
20857;SDS011;10589;53.636;10.012;2022-12-07T07:23:26;10.57;;;3.50;;
20857;SDS011;10589;53.636;10.012;2022-12-07T07:25:52;7.00;;;3.33;;
20857;SDS011;10589;53.636;10.012;2022-12-07T07:28:18;6.67;;;3.13;;
20857;SDS011;10589;53.636;10.012;2022-12-07T07:30:44;5.87;;;2.67;;
20857;SDS011;10589;53.636;10.012;2022-12-07T07:33:09;10.43;;;4.80;;
20857;SDS011;10589;53.636;10.012;2022-12-07T07:35:35;6.83;;;3.40;;
20857;SDS011;10589;53.636;10.012;2022-12-07T07:38:01;13.00;;;3.53;;
20857;SDS011;10589;53.636;10.012;2022-12-07T07:40:28;6.87;;;2.50;;
20857;SDS011;10589;53.636;10.012;2022-12-07T07:42:54;11.33;;;3.27;;
20857;SDS011;10589;53.636;10.012;2022-12-07T07:45:21;8.87;;;2.87;;
20857;SDS011;10589;53.636;10.012;2022-12-07T07:47:47;10.43;;;3.17;;
20857;SDS011;10589;53.636;10.012;2022-12-07T07:50:13;9.83;;;2.70;;
20857;SDS011;10589;53.636;10.012;2022-12-07T07:52:39;12.00;;;2.80;;
20857;SDS011;10589;53.636;10.012;2022-12-07T07:55:05;9.70;;;2.33;;
20857;SDS011;10589;53.636;10.012;2022-12-07T07:57:33;7.30;;;1.70;;
20857;SDS011;10589;53.636;10.012;2022-12-07T08:00:10;6.20;;;2.07;;
20857;SDS011;10589;53.636;10.012;2022-12-07T08:02:38;8.10;;;1.80;;
20857;SDS011;10589;53.636;10.012;2022-12-07T08:05:04;4.83;;;1.90;;
20857;SDS011;10589;53.636;10.012;2022-12-07T08:07:30;4.43;;;2.10;;
20857;SDS011;10589;53.636;10.012;2022-12-07T08:09:56;4.97;;;1.90;;
20857;SDS011;10589;53.636;10.012;2022-12-07T08:12:21;5.27;;;1.80;;
20857;SDS011;10589;53.636;10.012;2022-12-07T08:14:47;8.90;;;2.00;;
20857;SDS011;10589;53.636;10.012;2022-12-07T08:17:12;4.10;;;1.70;;
20857;SDS011;10589;53.636;10.012;2022-12-07T08:19:38;8.03;;;2.00;;
20857;SDS011;10589;53.636;10.012;2022-12-07T08:22:04;3.83;;;1.60;;
20857;SDS011;10589;53.636;10.012;2022-12-07T08:24:29;8.70;;;2.10;;
20857;SDS011;10589;53.636;10.012;2022-12-07T08:26:57;8.57;;;1.67;;
20857;SDS011;10589;53.636;10.012;2022-12-07T08:29:23;8.63;;;1.93;;
20857;SDS011;10589;53.636;10.012;2022-12-07T08:31:48;5.00;;;2.03;;
20857;SDS011;10589;53.636;10.012;2022-12-07T08:34:14;4.87;;;1.60;;
20857;SDS011;10589;53.636;10.012;2022-12-07T08:36:40;5.07;;;1.70;;
20857;SDS011;10589;53.636;10.012;2022-12-07T08:39:05;13.87;;;2.13;;
20857;SDS011;10589;53.636;10.012;2022-12-07T08:41:31;7.33;;;2.23;;
20857;SDS011;10589;53.636;10.012;2022-12-07T08:43:57;6.33;;;1.80;;
20857;SDS011;10589;53.636;10.012;2022-12-07T08:51:26;6.30;;;2.20;;
20857;SDS011;10589;53.636;10.012;2022-12-07T08:53:53;6.50;;;1.47;;
20857;SDS011;10589;53.636;10.012;2022-12-07T08:56:20;7.47;;;1.80;;
20857;SDS011;10589;53.636;10.012;2022-12-07T08:58:46;8.17;;;1.60;;
20857;SDS011;10589;53.636;10.012;2022-12-07T09:01:13;8.67;;;1.97;;
20857;SDS011;10589;53.636;10.012;2022-12-07T09:03:38;8.33;;;2.40;;
20857;SDS011;10589;53.636;10.012;2022-12-07T09:06:04;4.97;;;2.03;;
20857;SDS011;10589;53.636;10.012;2022-12-07T09:08:32;10.17;;;2.00;;
20857;SDS011;10589;53.636;10.012;2022-12-07T09:11:01;7.30;;;2.00;;
20857;SDS011;10589;53.636;10.012;2022-12-07T09:13:27;11.00;;;1.60;;
20857;SDS011;10589;53.636;10.012;2022-12-07T09:15:52;7.40;;;1.70;;
20857;SDS011;10589;53.636;10.012;2022-12-07T09:18:18;10.70;;;1.87;;
20857;SDS011;10589;53.636;10.012;2022-12-07T09:20:44;14.87;;;2.07;;
20857;SDS011;10589;53.636;10.012;2022-12-07T09:23:10;10.13;;;2.13;;
20857;SDS011;10589;53.636;10.012;2022-12-07T09:25:36;9.20;;;1.47;;
20857;SDS011;10589;53.636;10.012;2022-12-07T09:28:01;7.77;;;2.07;;
20857;SDS011;10589;53.636;10.012;2022-12-07T09:30:27;13.17;;;2.13;;
20857;SDS011;10589;53.636;10.012;2022-12-07T09:32:56;10.60;;;2.13;;
20857;SDS011;10589;53.636;10.012;2022-12-07T09:35:22;8.93;;;2.23;;
20857;SDS011;10589;53.636;10.012;2022-12-07T09:37:49;11.77;;;2.00;;
20857;SDS011;10589;53.636;10.012;2022-12-07T09:40:15;10.57;;;1.90;;
20857;SDS011;10589;53.636;10.012;2022-12-07T09:42:43;4.50;;;1.60;;
20857;SDS011;10589;53.636;10.012;2022-12-07T09:45:13;4.90;;;1.53;;
20857;SDS011;10589;53.636;10.012;2022-12-07T09:47:42;7.70;;;1.60;;
20857;SDS011;10589;53.636;10.012;2022-12-07T09:50:18;7.43;;;1.60;;
20857;SDS011;10589;53.636;10.012;2022-12-07T09:52:48;8.77;;;1.57;;
20857;SDS011;10589;53.636;10.012;2022-12-07T09:55:16;12.50;;;1.90;;
20857;SDS011;10589;53.636;10.012;2022-12-07T09:57:46;9.90;;;1.80;;
20857;SDS011;10589;53.636;10.012;2022-12-07T10:00:16;8.43;;;1.50;;
20857;SDS011;10589;53.636;10.012;2022-12-07T10:02:44;8.20;;;1.57;;
20857;SDS011;10589;53.636;10.012;2022-12-07T10:05:18;5.20;;;1.40;;
20857;SDS011;10589;53.636;10.012;2022-12-07T10:07:52;9.50;;;1.60;;
20857;SDS011;10589;53.636;10.012;2022-12-07T10:10:29;5.63;;;1.27;;
20857;SDS011;10589;53.636;10.012;2022-12-07T10:15:22;7.03;;;2.13;;
20857;SDS011;10589;53.636;10.012;2022-12-07T10:17:51;5.57;;;1.60;;
20857;SDS011;10589;53.636;10.012;2022-12-07T10:20:24;6.50;;;1.60;;
20857;SDS011;10589;53.636;10.012;2022-12-07T10:22:56;5.37;;;1.40;;
20857;SDS011;10589;53.636;10.012;2022-12-07T10:25:25;7.53;;;1.50;;
20857;SDS011;10589;53.636;10.012;2022-12-07T10:28:00;5.00;;;1.10;;
20857;SDS011;10589;53.636;10.012;2022-12-07T10:30:28;6.63;;;1.30;;
20857;SDS011;10589;53.636;10.012;2022-12-07T10:32:54;7.10;;;1.83;;
20857;SDS011;10589;53.636;10.012;2022-12-07T10:37:51;9.00;;;1.70;;
20857;SDS011;10589;53.636;10.012;2022-12-07T10:40:25;4.87;;;1.13;;
20857;SDS011;10589;53.636;10.012;2022-12-07T10:48:24;5.50;;;0.93;;
20857;SDS011;10589;53.636;10.012;2022-12-07T10:51:12;4.47;;;1.00;;
20857;SDS011;10589;53.636;10.012;2022-12-07T10:59:39;7.03;;;1.30;;
20857;SDS011;10589;53.636;10.012;2022-12-07T11:02:22;4.87;;;0.90;;
20857;SDS011;10589;53.636;10.012;2022-12-07T11:05:38;5.90;;;1.10;;
20857;SDS011;10589;53.636;10.012;2022-12-07T11:10:48;8.90;;;1.30;;
20857;SDS011;10589;53.636;10.012;2022-12-07T11:13:26;8.23;;;1.10;;
20857;SDS011;10589;53.636;10.012;2022-12-07T11:16:04;8.90;;;1.07;;
20857;SDS011;10589;53.636;10.012;2022-12-07T11:21:42;5.77;;;1.20;;
20857;SDS011;10589;53.636;10.012;2022-12-07T11:24:40;9.73;;;1.00;;
20857;SDS011;10589;53.636;10.012;2022-12-07T11:38:14;5.33;;;1.00;;
20857;SDS011;10589;53.636;10.012;2022-12-07T11:40:43;10.33;;;1.20;;
20857;SDS011;10589;53.636;10.012;2022-12-07T11:43:15;7.07;;;1.20;;
20857;SDS011;10589;53.636;10.012;2022-12-07T11:45:58;6.43;;;1.00;;
20857;SDS011;10589;53.636;10.012;2022-12-07T11:48:32;11.23;;;1.07;;
20857;SDS011;10589;53.636;10.012;2022-12-07T11:51:19;9.20;;;1.10;;
20857;SDS011;10589;53.636;10.012;2022-12-07T11:56:21;6.07;;;1.07;;
20857;SDS011;10589;53.636;10.012;2022-12-07T11:58:54;5.87;;;1.00;;
20857;SDS011;10589;53.636;10.012;2022-12-07T12:06:43;5.43;;;1.27;;
20857;SDS011;10589;53.636;10.012;2022-12-07T12:09:24;6.67;;;1.27;;
20857;SDS011;10589;53.636;10.012;2022-12-07T12:23:05;8.67;;;1.10;;
20857;SDS011;10589;53.636;10.012;2022-12-07T12:28:05;6.20;;;1.07;;
20857;SDS011;10589;53.636;10.012;2022-12-07T12:30:38;9.00;;;1.00;;
20857;SDS011;10589;53.636;10.012;2022-12-07T12:33:22;6.70;;;1.30;;
20857;SDS011;10589;53.636;10.012;2022-12-07T12:54:24;5.87;;;1.27;;
20857;SDS011;10589;53.636;10.012;2022-12-07T13:02:21;3.17;;;0.90;;
20857;SDS011;10589;53.636;10.012;2022-12-07T13:15:40;6.50;;;0.70;;
20857;SDS011;10589;53.636;10.012;2022-12-07T13:20:58;6.57;;;0.87;;
20857;SDS011;10589;53.636;10.012;2022-12-07T13:26:15;8.00;;;1.10;;
20857;SDS011;10589;53.636;10.012;2022-12-07T13:28:42;4.00;;;0.80;;
20857;SDS011;10589;53.636;10.012;2022-12-07T13:31:22;5.70;;;1.10;;
20857;SDS011;10589;53.636;10.012;2022-12-07T13:34:00;6.17;;;0.93;;
20857;SDS011;10589;53.636;10.012;2022-12-07T13:36:38;5.77;;;0.90;;
20857;SDS011;10589;53.636;10.012;2022-12-07T13:41:41;4.50;;;1.10;;
20857;SDS011;10589;53.636;10.012;2022-12-07T13:44:12;5.57;;;0.80;;
20857;SDS011;10589;53.636;10.012;2022-12-07T13:49:29;3.37;;;0.87;;
20857;SDS011;10589;53.636;10.012;2022-12-07T13:54:57;6.73;;;0.87;;
20857;SDS011;10589;53.636;10.012;2022-12-07T13:57:38;3.80;;;0.80;;
20857;SDS011;10589;53.636;10.012;2022-12-07T14:00:06;3.60;;;0.70;;
20857;SDS011;10589;53.636;10.012;2022-12-07T14:05:27;3.40;;;0.60;;
20857;SDS011;10589;53.636;10.012;2022-12-07T14:08:04;11.37;;;1.17;;
20857;SDS011;10589;53.636;10.012;2022-12-07T14:16:00;3.90;;;0.57;;
20857;SDS011;10589;53.636;10.012;2022-12-07T14:18:28;3.27;;;1.10;;
20857;SDS011;10589;53.636;10.012;2022-12-07T14:23:41;4.87;;;0.70;;
20857;SDS011;10589;53.636;10.012;2022-12-07T14:28:52;4.17;;;0.63;;
20857;SDS011;10589;53.636;10.012;2022-12-07T14:31:38;2.93;;;0.70;;
20857;SDS011;10589;53.636;10.012;2022-12-07T14:34:03;1.70;;;0.50;;
20857;SDS011;10589;53.636;10.012;2022-12-07T14:36:29;2.53;;;0.67;;
20857;SDS011;10589;53.636;10.012;2022-12-07T14:38:55;7.43;;;0.97;;
20857;SDS011;10589;53.636;10.012;2022-12-07T14:41:23;4.33;;;0.77;;
20857;SDS011;10589;53.636;10.012;2022-12-07T14:44:10;6.20;;;0.80;;
20857;SDS011;10589;53.636;10.012;2022-12-07T14:46:37;2.77;;;0.63;;
20857;SDS011;10589;53.636;10.012;2022-12-07T14:49:02;4.37;;;0.90;;
20857;SDS011;10589;53.636;10.012;2022-12-07T14:51:28;5.93;;;1.20;;
20857;SDS011;10589;53.636;10.012;2022-12-07T14:53:54;5.97;;;1.40;;
20857;SDS011;10589;53.636;10.012;2022-12-07T14:56:20;1.97;;;0.67;;
20857;SDS011;10589;53.636;10.012;2022-12-07T14:58:45;5.50;;;0.90;;
20857;SDS011;10589;53.636;10.012;2022-12-07T15:01:13;3.30;;;0.80;;
20857;SDS011;10589;53.636;10.012;2022-12-07T15:03:38;2.37;;;0.60;;
20857;SDS011;10589;53.636;10.012;2022-12-07T15:06:04;9.97;;;1.10;;
20857;SDS011;10589;53.636;10.012;2022-12-07T15:08:31;2.77;;;0.70;;
20857;SDS011;10589;53.636;10.012;2022-12-07T15:10:56;2.50;;;1.07;;
20857;SDS011;10589;53.636;10.012;2022-12-07T15:13:22;2.27;;;0.60;;
20857;SDS011;10589;53.636;10.012;2022-12-07T15:16:10;3.00;;;1.00;;
20857;SDS011;10589;53.636;10.012;2022-12-07T15:18:37;3.27;;;0.93;;
20857;SDS011;10589;53.636;10.012;2022-12-07T15:21:03;4.80;;;1.00;;
20857;SDS011;10589;53.636;10.012;2022-12-07T15:23:29;4.43;;;1.00;;
20857;SDS011;10589;53.636;10.012;2022-12-07T15:25:56;3.03;;;1.23;;
20857;SDS011;10589;53.636;10.012;2022-12-07T15:28:21;2.43;;;0.90;;
20857;SDS011;10589;53.636;10.012;2022-12-07T15:30:47;3.63;;;0.80;;
20857;SDS011;10589;53.636;10.012;2022-12-07T15:33:12;3.20;;;0.90;;
20857;SDS011;10589;53.636;10.012;2022-12-07T15:35:42;6.47;;;1.07;;
20857;SDS011;10589;53.636;10.012;2022-12-07T15:38:09;5.20;;;0.90;;
20857;SDS011;10589;53.636;10.012;2022-12-07T15:40:35;4.67;;;0.90;;
20857;SDS011;10589;53.636;10.012;2022-12-07T15:43:01;3.77;;;1.20;;
20857;SDS011;10589;53.636;10.012;2022-12-07T15:45:27;5.23;;;0.80;;
20857;SDS011;10589;53.636;10.012;2022-12-07T15:47:52;3.47;;;0.97;;
20857;SDS011;10589;53.636;10.012;2022-12-07T15:50:20;5.20;;;0.60;;
20857;SDS011;10589;53.636;10.012;2022-12-07T15:52:46;3.23;;;0.57;;
20857;SDS011;10589;53.636;10.012;2022-12-07T15:55:12;2.30;;;0.83;;
20857;SDS011;10589;53.636;10.012;2022-12-07T15:57:38;1.37;;;0.40;;
20857;SDS011;10589;53.636;10.012;2022-12-07T16:00:04;2.53;;;0.40;;
20857;SDS011;10589;53.636;10.012;2022-12-07T16:02:31;2.27;;;0.80;;
20857;SDS011;10589;53.636;10.012;2022-12-07T16:04:57;5.53;;;1.00;;
20857;SDS011;10589;53.636;10.012;2022-12-07T16:07:23;4.10;;;1.00;;
20857;SDS011;10589;53.636;10.012;2022-12-07T16:09:48;4.30;;;1.00;;
20857;SDS011;10589;53.636;10.012;2022-12-07T16:12:17;2.13;;;0.80;;
20857;SDS011;10589;53.636;10.012;2022-12-07T16:14:43;3.73;;;0.90;;
20857;SDS011;10589;53.636;10.012;2022-12-07T16:17:09;3.80;;;1.13;;
20857;SDS011;10589;53.636;10.012;2022-12-07T16:19:35;3.40;;;1.13;;
20857;SDS011;10589;53.636;10.012;2022-12-07T16:22:02;2.83;;;1.20;;
20857;SDS011;10589;53.636;10.012;2022-12-07T16:24:28;4.73;;;1.20;;
20857;SDS011;10589;53.636;10.012;2022-12-07T16:26:56;5.33;;;1.60;;
20857;SDS011;10589;53.636;10.012;2022-12-07T16:29:21;4.80;;;1.27;;
20857;SDS011;10589;53.636;10.012;2022-12-07T16:31:47;5.27;;;1.20;;
20857;SDS011;10589;53.636;10.012;2022-12-07T16:34:14;3.80;;;1.37;;
20857;SDS011;10589;53.636;10.012;2022-12-07T16:36:39;3.30;;;1.20;;
20857;SDS011;10589;53.636;10.012;2022-12-07T16:39:05;5.27;;;1.33;;
20857;SDS011;10589;53.636;10.012;2022-12-07T16:41:31;6.17;;;1.20;;
20857;SDS011;10589;53.636;10.012;2022-12-07T16:44:00;6.30;;;1.07;;
20857;SDS011;10589;53.636;10.012;2022-12-07T16:46:32;4.03;;;1.20;;
20857;SDS011;10589;53.636;10.012;2022-12-07T16:48:58;3.93;;;1.37;;
20857;SDS011;10589;53.636;10.012;2022-12-07T16:51:24;4.53;;;1.40;;
20857;SDS011;10589;53.636;10.012;2022-12-07T16:53:51;6.00;;;1.13;;
20857;SDS011;10589;53.636;10.012;2022-12-07T16:56:17;5.40;;;1.40;;
20857;SDS011;10589;53.636;10.012;2022-12-07T16:58:43;6.17;;;1.23;;
20857;SDS011;10589;53.636;10.012;2022-12-07T17:01:13;2.23;;;1.40;;
20857;SDS011;10589;53.636;10.012;2022-12-07T17:03:43;5.40;;;2.00;;
20857;SDS011;10589;53.636;10.012;2022-12-07T17:06:13;4.53;;;1.53;;
20857;SDS011;10589;53.636;10.012;2022-12-07T17:08:41;7.53;;;1.50;;
20857;SDS011;10589;53.636;10.012;2022-12-07T17:11:15;6.93;;;2.00;;
20857;SDS011;10589;53.636;10.012;2022-12-07T17:13:42;5.27;;;2.20;;
20857;SDS011;10589;53.636;10.012;2022-12-07T17:16:27;5.67;;;2.90;;
20857;SDS011;10589;53.636;10.012;2022-12-07T17:18:53;5.60;;;2.57;;
20857;SDS011;10589;53.636;10.012;2022-12-07T17:21:19;6.90;;;3.07;;
20857;SDS011;10589;53.636;10.012;2022-12-07T17:23:45;6.67;;;2.43;;
20857;SDS011;10589;53.636;10.012;2022-12-07T17:26:13;6.00;;;3.47;;
20857;SDS011;10589;53.636;10.012;2022-12-07T17:28:41;8.80;;;3.80;;
20857;SDS011;10589;53.636;10.012;2022-12-07T17:31:08;8.43;;;3.67;;
20857;SDS011;10589;53.636;10.012;2022-12-07T17:33:36;7.13;;;3.63;;
20857;SDS011;10589;53.636;10.012;2022-12-07T17:36:11;8.07;;;4.60;;
20857;SDS011;10589;53.636;10.012;2022-12-07T17:38:39;10.00;;;4.23;;
20857;SDS011;10589;53.636;10.012;2022-12-07T17:41:09;9.33;;;4.37;;
20857;SDS011;10589;53.636;10.012;2022-12-07T17:43:35;7.93;;;4.10;;
20857;SDS011;10589;53.636;10.012;2022-12-07T17:46:10;6.40;;;3.70;;
20857;SDS011;10589;53.636;10.012;2022-12-07T17:48:36;9.53;;;3.63;;
20857;SDS011;10589;53.636;10.012;2022-12-07T17:51:01;8.87;;;4.47;;
20857;SDS011;10589;53.636;10.012;2022-12-07T17:53:49;7.80;;;3.83;;
20857;SDS011;10589;53.636;10.012;2022-12-07T17:56:15;9.47;;;3.90;;
20857;SDS011;10589;53.636;10.012;2022-12-07T17:58:41;6.80;;;4.00;;
20857;SDS011;10589;53.636;10.012;2022-12-07T18:01:07;6.07;;;3.83;;
20857;SDS011;10589;53.636;10.012;2022-12-07T18:03:34;7.27;;;3.83;;
20857;SDS011;10589;53.636;10.012;2022-12-07T18:06:00;7.73;;;4.30;;
20857;SDS011;10589;53.636;10.012;2022-12-07T18:08:25;7.03;;;3.70;;
20857;SDS011;10589;53.636;10.012;2022-12-07T18:10:57;8.30;;;4.20;;
20857;SDS011;10589;53.636;10.012;2022-12-07T18:13:25;9.67;;;4.47;;
20857;SDS011;10589;53.636;10.012;2022-12-07T18:16:00;8.13;;;4.10;;
20857;SDS011;10589;53.636;10.012;2022-12-07T18:18:27;7.90;;;4.10;;
20857;SDS011;10589;53.636;10.012;2022-12-07T18:20:53;10.40;;;4.70;;
20857;SDS011;10589;53.636;10.012;2022-12-07T18:23:19;6.77;;;3.97;;
20857;SDS011;10589;53.636;10.012;2022-12-07T18:25:48;9.23;;;4.50;;
20857;SDS011;10589;53.636;10.012;2022-12-07T18:28:14;8.17;;;3.63;;
20857;SDS011;10589;53.636;10.012;2022-12-07T18:30:40;7.63;;;4.00;;
20857;SDS011;10589;53.636;10.012;2022-12-07T18:33:06;8.00;;;4.20;;
20857;SDS011;10589;53.636;10.012;2022-12-07T18:35:32;9.70;;;4.77;;
20857;SDS011;10589;53.636;10.012;2022-12-07T18:37:58;9.00;;;4.43;;
20857;SDS011;10589;53.636;10.012;2022-12-07T18:40:24;10.00;;;4.90;;
20857;SDS011;10589;53.636;10.012;2022-12-07T18:42:50;10.40;;;4.67;;
20857;SDS011;10589;53.636;10.012;2022-12-07T18:45:15;7.07;;;4.27;;
20857;SDS011;10589;53.636;10.012;2022-12-07T18:47:41;13.97;;;4.97;;
20857;SDS011;10589;53.636;10.012;2022-12-07T18:50:07;11.90;;;4.27;;
20857;SDS011;10589;53.636;10.012;2022-12-07T18:52:33;8.43;;;5.13;;
20857;SDS011;10589;53.636;10.012;2022-12-07T18:54:58;12.27;;;6.73;;
20857;SDS011;10589;53.636;10.012;2022-12-07T18:57:26;9.33;;;5.77;;
20857;SDS011;10589;53.636;10.012;2022-12-07T18:59:52;11.40;;;5.27;;
20857;SDS011;10589;53.636;10.012;2022-12-07T19:02:18;13.23;;;6.50;;
20857;SDS011;10589;53.636;10.012;2022-12-07T19:04:43;15.33;;;6.53;;
20857;SDS011;10589;53.636;10.012;2022-12-07T19:07:09;10.47;;;5.80;;
20857;SDS011;10589;53.636;10.012;2022-12-07T19:09:35;13.63;;;6.40;;
20857;SDS011;10589;53.636;10.012;2022-12-07T19:12:01;12.53;;;6.17;;
20857;SDS011;10589;53.636;10.012;2022-12-07T19:14:33;10.03;;;5.93;;
20857;SDS011;10589;53.636;10.012;2022-12-07T19:17:00;16.20;;;7.23;;
20857;SDS011;10589;53.636;10.012;2022-12-07T19:19:32;13.67;;;7.53;;
20857;SDS011;10589;53.636;10.012;2022-12-07T19:22:01;13.57;;;6.93;;
20857;SDS011;10589;53.636;10.012;2022-12-07T19:24:27;14.27;;;7.07;;
20857;SDS011;10589;53.636;10.012;2022-12-07T19:26:54;12.57;;;6.77;;
20857;SDS011;10589;53.636;10.012;2022-12-07T19:29:20;15.60;;;7.87;;
20857;SDS011;10589;53.636;10.012;2022-12-07T19:31:45;27.30;;;16.00;;
20857;SDS011;10589;53.636;10.012;2022-12-07T19:34:12;47.77;;;24.37;;
20857;SDS011;10589;53.636;10.012;2022-12-07T19:36:40;77.40;;;39.60;;
20857;SDS011;10589;53.636;10.012;2022-12-07T19:39:06;63.37;;;32.90;;
20857;SDS011;10589;53.636;10.012;2022-12-07T19:41:32;42.40;;;21.17;;
20857;SDS011;10589;53.636;10.012;2022-12-07T19:43:59;39.97;;;23.50;;
20857;SDS011;10589;53.636;10.012;2022-12-07T19:46:25;35.50;;;19.47;;
20857;SDS011;10589;53.636;10.012;2022-12-07T19:48:52;32.90;;;19.87;;
20857;SDS011;10589;53.636;10.012;2022-12-07T19:51:18;31.83;;;18.43;;
20857;SDS011;10589;53.636;10.012;2022-12-07T19:53:43;29.40;;;17.33;;
20857;SDS011;10589;53.636;10.012;2022-12-07T19:56:13;37.10;;;21.13;;
20857;SDS011;10589;53.636;10.012;2022-12-07T19:58:39;32.93;;;20.97;;
20857;SDS011;10589;53.636;10.012;2022-12-07T20:01:05;43.87;;;25.53;;
20857;SDS011;10589;53.636;10.012;2022-12-07T20:03:31;32.87;;;21.97;;
20857;SDS011;10589;53.636;10.012;2022-12-07T20:05:57;35.07;;;22.03;;
20857;SDS011;10589;53.636;10.012;2022-12-07T20:08:22;33.83;;;20.13;;
20857;SDS011;10589;53.636;10.012;2022-12-07T20:10:49;31.83;;;19.67;;
20857;SDS011;10589;53.636;10.012;2022-12-07T20:13:15;28.27;;;17.90;;
20857;SDS011;10589;53.636;10.012;2022-12-07T20:15:55;32.57;;;18.90;;
20857;SDS011;10589;53.636;10.012;2022-12-07T20:18:22;29.50;;;19.23;;
20857;SDS011;10589;53.636;10.012;2022-12-07T20:20:54;28.67;;;17.13;;
20857;SDS011;10589;53.636;10.012;2022-12-07T20:23:26;27.97;;;16.43;;
20857;SDS011;10589;53.636;10.012;2022-12-07T20:25:53;23.10;;;14.73;;
20857;SDS011;10589;53.636;10.012;2022-12-07T20:28:19;21.80;;;12.67;;
20857;SDS011;10589;53.636;10.012;2022-12-07T20:30:46;20.50;;;12.07;;
20857;SDS011;10589;53.636;10.012;2022-12-07T20:33:12;15.87;;;9.77;;
20857;SDS011;10589;53.636;10.012;2022-12-07T20:35:38;22.43;;;10.67;;
20857;SDS011;10589;53.636;10.012;2022-12-07T20:38:03;19.17;;;9.57;;
20857;SDS011;10589;53.636;10.012;2022-12-07T20:40:29;14.70;;;8.13;;
20857;SDS011;10589;53.636;10.012;2022-12-07T20:42:55;13.47;;;8.10;;
20857;SDS011;10589;53.636;10.012;2022-12-07T20:45:20;13.97;;;6.80;;
20857;SDS011;10589;53.636;10.012;2022-12-07T20:47:47;16.40;;;7.00;;
20857;SDS011;10589;53.636;10.012;2022-12-07T20:50:12;10.17;;;5.50;;
20857;SDS011;10589;53.636;10.012;2022-12-07T20:52:38;11.30;;;5.40;;
20857;SDS011;10589;53.636;10.012;2022-12-07T20:55:04;7.83;;;4.90;;
20857;SDS011;10589;53.636;10.012;2022-12-07T20:57:30;14.10;;;5.07;;
20857;SDS011;10589;53.636;10.012;2022-12-07T20:59:56;9.53;;;5.07;;
20857;SDS011;10589;53.636;10.012;2022-12-07T21:02:21;7.97;;;4.40;;
20857;SDS011;10589;53.636;10.012;2022-12-07T21:04:48;11.90;;;4.90;;
20857;SDS011;10589;53.636;10.012;2022-12-07T21:07:13;6.67;;;4.00;;
20857;SDS011;10589;53.636;10.012;2022-12-07T21:09:39;8.50;;;4.33;;
20857;SDS011;10589;53.636;10.012;2022-12-07T21:12:04;10.17;;;4.10;;
20857;SDS011;10589;53.636;10.012;2022-12-07T21:14:34;9.80;;;4.33;;
20857;SDS011;10589;53.636;10.012;2022-12-07T21:17:03;12.63;;;4.77;;
20857;SDS011;10589;53.636;10.012;2022-12-07T21:19:28;10.87;;;4.93;;
20857;SDS011;10589;53.636;10.012;2022-12-07T21:21:54;8.30;;;4.00;;
20857;SDS011;10589;53.636;10.012;2022-12-07T21:24:20;14.17;;;4.83;;